Time;durP1;ratioP1;P1;durP2;ratioP2;P2;SDS_P1;SDS_P2;PMS_P1;PMS_P2;Temp;Humidity;BMP_temperature;BMP_pressure;BME280_temperature;BME280_humidity;BME280_pressure;Samples;Min_cycle;Max_cycle;Signal;HPM_P1;HPM_P2
2022/08/28 00:01:54;;;;;;;2.45;1.40;;;17.90;99.90;;;;;;5041024;28;20099;-86
2022/08/28 00:04:31;;;;;;;1.70;1.60;;;17.90;99.90;;;;;;5028130;28;20033;-88
2022/08/28 00:06:57;;;;;;;1.83;1.40;;;17.90;99.90;;;;;;5036391;28;20036;-86
2022/08/28 00:09:26;;;;;;;1.40;1.30;;;17.90;99.90;;;;;;5041066;28;20021;-86
2022/08/28 00:12:03;;;;;;;2.25;1.20;;;18.00;99.90;;;;;;5018945;28;20053;-87
2022/08/28 00:14:41;;;;;;;1.85;1.45;;;18.00;99.90;;;;;;5027862;28;20018;-86
2022/08/28 00:17:10;;;;;;;1.48;1.38;;;18.10;99.90;;;;;;5026780;28;20043;-87
2022/08/28 00:19:39;;;;;;;3.03;1.25;;;18.10;99.90;;;;;;5027200;28;20032;-87
2022/08/28 00:22:06;;;;;;;1.40;1.30;;;18.00;99.90;;;;;;5027035;28;20026;-87
2022/08/28 00:24:35;;;;;;;2.45;1.50;;;18.10;99.90;;;;;;5027534;28;20022;-89
2022/08/28 00:29:49;;;;;;;1.40;1.30;;;18.10;99.90;;;;;;5046872;28;20423;-87
2022/08/28 00:32:15;;;;;;;1.73;1.63;;;18.10;99.90;;;;;;5028638;28;20045;-87
2022/08/28 00:34:41;;;;;;;1.20;1.20;;;18.00;99.90;;;;;;5028860;28;20481;-87
2022/08/28 00:37:07;;;;;;;1.38;1.20;;;18.00;99.90;;;;;;5028307;28;20022;-88
2022/08/28 00:39:33;;;;;;;1.30;1.17;;;17.90;99.90;;;;;;5028473;28;20090;-87
2022/08/28 00:42:04;;;;;;;1.40;1.30;;;17.90;99.90;;;;;;5027873;28;20033;-89
2022/08/28 00:44:30;;;;;;;2.45;1.40;;;17.80;99.90;;;;;;5046731;28;20036;-87
2022/08/28 00:46:57;;;;;;;1.45;1.38;;;17.80;99.90;;;;;;5030843;28;20026;-86
2022/08/28 00:49:27;;;;;;;1.65;1.40;;;17.80;99.90;;;;;;5031996;28;20025;-87
2022/08/28 00:52:10;;;;;;;1.83;1.50;;;17.80;99.90;;;;;;5032320;28;20033;-86
2022/08/28 00:54:41;;;;;;;1.50;1.33;;;17.80;99.90;;;;;;5031684;28;20032;-87
2022/08/28 00:57:14;;;;;;;1.67;1.58;;;17.80;99.90;;;;;;5034296;28;20033;-87
2022/08/28 00:59:40;;;;;;;1.80;1.70;;;17.90;99.90;;;;;;5052098;28;20037;-87
2022/08/28 01:02:07;;;;;;;1.83;1.42;;;17.90;99.90;;;;;;5053094;28;20338;-86
2022/08/28 01:04:33;;;;;;;1.98;1.77;;;17.90;99.90;;;;;;5067268;28;20025;-87
2022/08/28 01:07:04;;;;;;;1.95;1.50;;;17.90;99.90;;;;;;5066552;28;20056;-86
2022/08/28 01:09:31;;;;;;;2.10;1.60;;;18.00;99.90;;;;;;5048735;28;20412;-87
2022/08/28 01:12:06;;;;;;;1.63;1.52;;;18.00;99.90;;;;;;5048275;28;20033;-86
2022/08/28 01:14:35;;;;;;;1.63;1.52;;;18.00;99.90;;;;;;5034862;28;20036;-87
2022/08/28 01:17:02;;;;;;;2.50;1.92;;;18.00;99.90;;;;;;5028592;28;20041;-86
2022/08/28 01:19:41;;;;;;;1.60;1.48;;;18.00;99.90;;;;;;5051467;28;20087;-86
2022/08/28 01:22:18;;;;;;;1.88;1.73;;;18.00;99.90;;;;;;5038790;28;20049;-88
2022/08/28 01:24:45;;;;;;;3.10;1.90;;;18.00;99.90;;;;;;5039517;28;20022;-89
2022/08/28 01:27:10;;;;;;;1.83;1.73;;;18.00;99.90;;;;;;5037275;28;20009;-88
2022/08/28 01:29:36;;;;;;;2.03;1.60;;;18.00;99.90;;;;;;5059279;28;20089;-89
2022/08/28 01:32:04;;;;;;;1.85;1.75;;;17.90;99.90;;;;;;5048395;28;20029;-89
2022/08/28 01:34:30;;;;;;;1.77;1.60;;;17.90;99.90;;;;;;5055027;28;20060;-85
2022/08/28 01:36:57;;;;;;;1.63;1.52;;;17.90;99.90;;;;;;5035886;28;20035;-87
2022/08/28 01:39:24;;;;;;;3.15;1.42;;;17.90;99.90;;;;;;5032016;28;20488;-85
2022/08/28 01:41:51;;;;;;;1.80;1.70;;;17.90;99.90;;;;;;5030989;28;20053;-86
2022/08/28 01:44:24;;;;;;;1.83;1.73;;;17.90;99.90;;;;;;5025273;28;20041;-86
2022/08/28 01:46:52;;;;;;;2.22;1.75;;;17.90;99.90;;;;;;5046139;28;20302;-87
2022/08/28 01:49:19;;;;;;;1.63;1.52;;;17.90;99.90;;;;;;5029197;28;20041;-86
2022/08/28 01:51:45;;;;;;;2.08;1.88;;;17.90;99.90;;;;;;5030096;28;20036;-88
2022/08/28 01:54:11;;;;;;;1.40;1.30;;;17.90;99.90;;;;;;5048897;28;20025;-87
2022/08/28 01:56:39;;;;;;;3.25;1.98;;;17.90;99.90;;;;;;5030075;28;20133;-87
2022/08/28 01:59:07;;;;;;;2.35;2.17;;;17.90;99.90;;;;;;5031381;28;20094;-87
2022/08/28 02:01:34;;;;;;;1.60;1.50;;;17.90;99.90;;;;;;5040093;28;20017;-87
2022/08/28 02:04:03;;;;;;;2.97;1.70;;;18.00;99.90;;;;;;5054124;28;20026;-87
2022/08/28 02:06:30;;;;;;;1.70;1.60;;;18.00;99.90;;;;;;5029341;28;20395;-87
2022/08/28 02:08:56;;;;;;;1.55;1.45;;;18.00;99.90;;;;;;5029130;28;20101;-87
2022/08/28 02:11:23;;;;;;;2.05;1.85;;;18.00;99.90;;;;;;5027312;28;20026;-86
2022/08/28 02:13:53;;;;;;;1.58;1.48;;;18.00;99.90;;;;;;5028847;28;20488;-86
2022/08/28 02:16:20;;;;;;;1.60;1.50;;;18.00;99.90;;;;;;5036750;28;20033;-86
2022/08/28 02:18:46;;;;;;;2.25;1.75;;;18.00;99.90;;;;;;5045502;28;20060;-86
2022/08/28 02:21:12;;;;;;;1.38;1.27;;;18.10;99.90;;;;;;5052124;28;20021;-87
2022/08/28 02:23:40;;;;;;;1.73;1.63;;;18.00;99.90;;;;;;5058047;28;20016;-87
2022/08/28 02:26:07;;;;;;;1.83;1.70;;;18.00;99.90;;;;;;5030275;28;20044;-87
2022/08/28 02:28:33;;;;;;;1.75;1.65;;;18.10;99.90;;;;;;5029873;28;20018;-85
2022/08/28 02:30:59;;;;;;;1.88;1.73;;;18.00;99.90;;;;;;5012758;28;20064;-86
2022/08/28 02:33:28;;;;;;;1.52;1.42;;;18.00;99.90;;;;;;5012148;28;20030;-85
2022/08/28 02:35:59;;;;;;;2.08;1.98;;;18.00;99.90;;;;;;5029023;28;20029;-89
2022/08/28 02:38:31;;;;;;;2.17;1.92;;;18.00;99.90;;;;;;5028801;28;20040;-86
2022/08/28 02:41:01;;;;;;;2.00;1.90;;;18.00;99.90;;;;;;5027708;28;20076;-87
2022/08/28 02:43:31;;;;;;;2.40;2.10;;;18.00;99.90;;;;;;5039469;28;20049;-87
2022/08/28 02:45:58;;;;;;;2.05;1.92;;;18.00;99.90;;;;;;5045118;28;20045;-87
2022/08/28 02:48:30;;;;;;;1.98;1.88;;;18.00;99.90;;;;;;5026807;28;20549;-88
2022/08/28 02:51:03;;;;;;;2.28;2.08;;;18.00;99.90;;;;;;5048055;28;20075;-88
2022/08/28 02:53:32;;;;;;;1.92;1.83;;;18.00;99.90;;;;;;5028479;28;20030;-87
2022/08/28 02:56:04;;;;;;;2.28;2.00;;;18.00;99.90;;;;;;5027431;28;20050;-87
2022/08/28 02:58:31;;;;;;;1.65;1.55;;;18.00;99.90;;;;;;5026779;28;20463;-86
2022/08/28 03:01:11;;;;;;;1.90;1.80;;;18.00;99.90;;;;;;5029003;28;20064;-86
2022/08/28 03:03:38;;;;;;;2.13;1.98;;;18.00;99.90;;;;;;5044675;28;20044;-86
2022/08/28 03:06:05;;;;;;;1.60;1.50;;;18.00;99.90;;;;;;5029975;28;20026;-85
2022/08/28 03:08:31;;;;;;;1.83;1.73;;;18.00;99.90;;;;;;5027336;28;20025;-86
2022/08/28 03:10:58;;;;;;;1.98;1.88;;;18.00;99.90;;;;;;5031753;28;20036;-86
2022/08/28 03:13:24;;;;;;;3.08;2.63;;;18.00;99.90;;;;;;5038918;28;20081;-87
2022/08/28 03:15:53;;;;;;;2.83;2.63;;;18.00;99.90;;;;;;5043166;28;20028;-86
2022/08/28 03:18:19;;;;;;;3.58;2.75;;;18.00;99.90;;;;;;5040015;28;20018;-85
2022/08/28 03:20:46;;;;;;;2.58;2.38;;;18.00;99.90;;;;;;5039507;28;20060;-87
2022/08/28 03:23:27;;;;;;;3.20;2.90;;;18.00;99.90;;;;;;5039171;28;20135;-85
2022/08/28 03:25:58;;;;;;;2.80;2.50;;;18.00;99.90;;;;;;5036996;28;20020;-89
2022/08/28 03:28:26;;;;;;;2.28;2.08;;;18.10;99.90;;;;;;5051348;28;20029;-88
2022/08/28 03:30:53;;;;;;;2.58;2.38;;;18.10;99.90;;;;;;5032887;28;20092;-88
2022/08/28 03:33:21;;;;;;;1.92;1.83;;;18.10;99.90;;;;;;5048535;28;20092;-87
2022/08/28 03:35:48;;;;;;;2.70;2.50;;;18.10;99.90;;;;;;5052132;28;20032;-88
2022/08/28 03:38:17;;;;;;;3.42;2.85;;;18.10;99.90;;;;;;5051821;28;20029;-87
2022/08/28 03:40:45;;;;;;;3.20;3.00;;;18.10;99.90;;;;;;5051176;28;20249;-86
2022/08/28 03:43:19;;;;;;;3.22;2.92;;;18.00;99.90;;;;;;5050044;28;20019;-88
2022/08/28 03:45:57;;;;;;;3.63;3.30;;;18.00;99.90;;;;;;5033156;28;20056;-88
2022/08/28 03:48:28;;;;;;;2.50;2.30;;;18.00;99.90;;;;;;5031323;28;20064;-88
2022/08/28 03:50:55;;;;;;;3.47;3.17;;;18.00;99.90;;;;;;5042244;28;20017;-87
2022/08/28 03:53:25;;;;;;;3.00;2.70;;;17.90;99.90;;;;;;5032940;28;20087;-86
2022/08/28 03:55:52;;;;;;;3.03;2.58;;;17.90;99.90;;;;;;5037315;28;20024;-89
2022/08/28 03:58:19;;;;;;;3.08;2.85;;;18.00;99.90;;;;;;5031368;28;20056;-87
2022/08/28 04:00:45;;;;;;;3.70;3.40;;;18.00;99.90;;;;;;5026633;28;20026;-87
2022/08/28 04:03:14;;;;;;;3.17;2.88;;;18.00;99.90;;;;;;5025351;28;20029;-87
2022/08/28 04:05:47;;;;;;;4.13;3.72;;;18.00;99.90;;;;;;5025250;28;20033;-87
2022/08/28 04:08:25;;;;;;;4.22;3.38;;;18.00;99.90;;;;;;5025761;28;20030;-86
2022/08/28 04:10:54;;;;;;;4.65;4.22;;;18.00;99.90;;;;;;5044213;28;20013;-87
2022/08/28 04:13:26;;;;;;;3.92;3.53;;;18.00;99.90;;;;;;5049318;28;20029;-86
2022/08/28 04:16:06;;;;;;;4.55;3.45;;;18.00;99.90;;;;;;5029299;28;20080;-87
2022/08/28 04:19:29;;;;;;;3.45;3.10;;;18.00;99.90;;;;;;5051473;28;20010;-86
2022/08/28 04:22:07;;;;;;;3.58;2.90;;;18.00;99.90;;;;;;4979567;28;20145;-88
2022/08/28 04:24:32;;;;;;;4.40;4.00;;;18.10;99.90;;;;;;4960339;28;20034;-87
2022/08/28 04:26:58;;;;;;;4.22;3.83;;;18.10;99.90;;;;;;4988278;28;20018;-87
2022/08/28 04:29:24;;;;;;;3.85;3.55;;;18.10;99.90;;;;;;5014044;28;20056;-87
2022/08/28 04:31:50;;;;;;;3.97;3.67;;;18.10;99.90;;;;;;5015145;28;20037;-87
2022/08/28 04:34:16;;;;;;;3.75;3.33;;;18.10;99.90;;;;;;5033216;28;20026;-88
2022/08/28 04:36:42;;;;;;;3.65;3.35;;;18.10;99.90;;;;;;5015997;28;20014;-85
2022/08/28 04:39:09;;;;;;;2.70;2.50;;;18.10;99.90;;;;;;5072978;22;20067;-77
2022/08/28 04:41:37;;;;;;;2.65;2.45;;;18.10;99.90;;;;;;5053344;28;20021;-78
2022/08/28 04:44:04;;;;;;;2.67;2.47;;;18.20;99.90;;;;;;5058396;28;20551;-77
2022/08/28 04:46:29;;;;;;;3.13;2.92;;;18.20;99.90;;;;;;5076473;28;20024;-78
2022/08/28 04:48:56;;;;;;;2.90;2.70;;;18.30;99.90;;;;;;5064917;28;20191;-77
2022/08/28 04:51:21;;;;;;;2.30;2.20;;;18.30;99.90;;;;;;5057433;28;20017;-78
2022/08/28 04:53:47;;;;;;;3.03;2.83;;;18.30;99.90;;;;;;5054772;28;20044;-75
2022/08/28 04:56:14;;;;;;;2.20;2.10;;;18.20;99.90;;;;;;5053881;28;20399;-76
2022/08/28 04:58:42;;;;;;;2.80;2.60;;;18.30;99.90;;;;;;5056809;28;20021;-77
2022/08/28 05:01:19;;;;;;;3.50;3.20;;;18.30;99.90;;;;;;5054360;28;20083;-78
2022/08/28 05:03:46;;;;;;;2.72;2.50;;;18.30;99.90;;;;;;5054543;28;20467;-77
2022/08/28 05:06:14;;;;;;;3.80;3.50;;;18.30;99.90;;;;;;5040617;28;20476;-79
2022/08/28 05:08:40;;;;;;;3.28;3.00;;;18.30;99.90;;;;;;5056339;28;20447;-79
2022/08/28 05:11:18;;;;;;;3.17;2.67;;;18.30;99.90;;;;;;5038521;28;20053;-79
2022/08/28 05:13:44;;;;;;;3.80;3.50;;;18.30;99.90;;;;;;5038538;28;20025;-79
2022/08/28 05:16:10;;;;;;;3.05;2.72;;;18.30;99.90;;;;;;5047382;28;20036;-79
2022/08/28 05:18:36;;;;;;;3.78;3.47;;;18.30;99.90;;;;;;5054857;28;20451;-79
2022/08/28 05:21:02;;;;;;;3.70;3.35;;;18.30;99.90;;;;;;5054636;28;20060;-79
2022/08/28 05:23:28;;;;;;;5.55;4.68;;;18.30;99.90;;;;;;5054418;28;20055;-77
2022/08/28 05:25:54;;;;;;;4.80;3.70;;;18.30;99.90;;;;;;5054349;28;20021;-77
2022/08/28 05:28:20;;;;;;;3.63;2.90;;;18.30;99.90;;;;;;5053961;28;20428;-78
2022/08/28 05:30:46;;;;;;;3.30;3.00;;;18.30;99.90;;;;;;5054436;28;20078;-78
2022/08/28 05:33:13;;;;;;;2.95;2.75;;;18.30;99.90;;;;;;5054294;28;20433;-77
2022/08/28 05:35:42;;;;;;;2.55;2.35;;;18.30;99.90;;;;;;5044787;28;20407;-77
2022/08/28 05:38:09;;;;;;;4.18;3.78;;;18.30;99.90;;;;;;5046014;28;20045;-78
2022/08/28 05:40:42;;;;;;;3.13;2.92;;;18.40;99.90;;;;;;5053873;28;20037;-78
2022/08/28 05:43:09;;;;;;;3.42;3.13;;;18.30;99.90;;;;;;5054130;28;20386;-78
2022/08/28 05:45:34;;;;;;;3.17;2.97;;;18.30;99.90;;;;;;5053721;28;20044;-78
2022/08/28 05:48:01;;;;;;;2.60;2.40;;;18.40;99.90;;;;;;5039178;28;20545;-77
2022/08/28 05:50:27;;;;;;;3.30;2.75;;;18.40;99.90;;;;;;5033970;28;20029;-78
2022/08/28 05:52:52;;;;;;;3.13;2.88;;;18.40;99.90;;;;;;5033924;28;20053;-77
2022/08/28 05:55:18;;;;;;;4.10;3.10;;;18.40;99.90;;;;;;5047458;28;20033;-78
2022/08/28 05:57:44;;;;;;;3.30;3.03;;;18.50;99.90;;;;;;5035380;28;20078;-77
2022/08/28 06:00:12;;;;;;;2.95;2.75;;;18.50;99.90;;;;;;5053771;28;20433;-78
2022/08/28 06:02:41;;;;;;;5.68;5.07;;;18.50;99.90;;;;;;5053347;28;20024;-78
2022/08/28 06:05:11;;;;;;;4.85;4.40;;;18.60;99.90;;;;;;5054120;28;20021;-78
2022/08/28 06:07:37;;;;;;;4.47;4.07;;;18.60;99.90;;;;;;5054732;28;20395;-79
2022/08/28 06:10:03;;;;;;;4.05;3.75;;;18.70;99.90;;;;;;5055417;28;20030;-78
2022/08/28 06:12:29;;;;;;;3.65;3.35;;;18.70;99.90;;;;;;5048835;28;20499;-77
2022/08/28 06:14:54;;;;;;;9.10;6.65;;;18.80;99.90;;;;;;5038808;28;20026;-78
2022/08/28 06:17:21;;;;;;;6.53;5.13;;;18.90;99.90;;;;;;5047142;28;20119;-77
2022/08/28 06:19:47;;;;;;;7.47;6.10;;;18.80;99.90;;;;;;5035783;28;20025;-78
2022/08/28 06:22:13;;;;;;;6.28;5.68;;;18.80;99.90;;;;;;5053680;28;20391;-78
2022/08/28 06:24:39;;;;;;;7.40;6.47;;;18.80;99.90;;;;;;5053001;28;20033;-78
2022/08/28 06:27:05;;;;;;;6.07;5.47;;;18.80;99.90;;;;;;5053054;28;20037;-77
2022/08/28 06:29:31;;;;;;;6.60;5.75;;;18.90;99.90;;;;;;5053092;28;20036;-77
2022/08/28 06:32:03;;;;;;;6.35;5.75;;;19.00;99.90;;;;;;5053442;28;20033;-76
2022/08/28 06:34:28;;;;;;;;;;;19.10;99.90;;;;;;5052255;28;20040;-77
2022/08/28 06:36:54;;;;;;;9.70;7.70;;;19.10;99.90;;;;;;5052899;28;19939;-77
2022/08/28 06:39:21;;;;;;;7.90;6.75;;;19.20;99.90;;;;;;5052527;28;20115;-77
2022/08/28 06:41:46;;;;;;;6.70;6.10;;;19.20;99.90;;;;;;5053115;28;20037;-78
2022/08/28 06:44:18;;;;;;;9.95;8.02;;;19.20;99.90;;;;;;5052036;28;20028;-78
2022/08/28 06:46:45;;;;;;;;;;;19.20;99.90;;;;;;5044820;28;20350;-76
2022/08/28 06:49:11;;;;;;;8.68;6.43;;;19.20;99.90;;;;;;5052329;28;19909;-76
2022/08/28 06:51:38;;;;;;;9.20;8.25;;;19.20;99.90;;;;;;5052935;28;20025;-78
2022/08/28 06:54:04;;;;;;;8.27;7.03;;;19.20;99.90;;;;;;5052162;28;20043;-78
2022/08/28 06:56:30;;;;;;;8.38;7.50;;;19.20;99.90;;;;;;5052619;28;20068;-79
2022/08/28 06:58:57;;;;;;;7.32;6.68;;;19.30;99.90;;;;;;5052486;28;20057;-78
2022/08/28 07:01:27;;;;;;;7.28;6.57;;;19.30;99.90;;;;;;5052573;28;20040;-77
2022/08/28 07:03:58;;;;;;;15.77;11.85;;;19.30;99.90;;;;;;5052151;28;20475;-77
2022/08/28 07:06:30;;;;;;;11.13;9.55;;;19.20;99.90;;;;;;5052097;28;20260;-77
2022/08/28 07:08:56;;;;;;;11.38;9.48;;;19.20;99.90;;;;;;5052482;28;20483;-79
2022/08/28 07:11:27;;;;;;;12.02;10.65;;;19.10;99.90;;;;;;5055789;28;20032;-77
2022/08/28 07:13:54;;;;;;;16.17;12.80;;;19.10;99.90;;;;;;5045610;28;20029;-77
2022/08/28 07:16:23;;;;;;;17.33;12.07;;;19.10;99.90;;;;;;5058125;28;20045;-79
2022/08/28 07:18:49;;;;;;;12.43;10.90;;;19.10;99.90;;;;;;5053205;28;20017;-77
2022/08/28 07:21:15;;;;;;;13.93;10.32;;;19.10;99.90;;;;;;5052994;28;20505;-77
2022/08/28 07:23:44;;;;;;;12.13;10.23;;;19.10;99.90;;;;;;5052751;28;20506;-78
2022/08/28 07:26:14;;;;;;;13.70;9.65;;;19.10;99.90;;;;;;5038388;28;20021;-78
2022/08/28 07:28:40;;;;;;;10.75;9.65;;;19.10;99.90;;;;;;5051357;28;20100;-76
2022/08/28 07:31:12;;;;;;;9.60;8.25;;;19.20;99.90;;;;;;5055434;28;20422;-77
2022/08/28 07:33:39;;;;;;;8.68;7.78;;;19.20;99.90;;;;;;5052447;28;20029;-77
2022/08/28 07:36:16;;;;;;;13.68;10.68;;;19.30;99.90;;;;;;5051589;28;20119;-78
2022/08/28 07:38:42;;;;;;;13.50;10.30;;;19.30;99.90;;;;;;5054981;28;20514;-77
2022/08/28 07:41:18;;;;;;;11.68;10.50;;;19.30;99.90;;;;;;5052406;28;20061;-77
2022/08/28 07:46:29;;;;;;;14.43;11.43;;;19.10;99.90;;;;;;5051280;28;20454;-77
2022/08/28 07:48:57;;;;;;;15.80;13.20;;;19.00;99.90;;;;;;5051917;28;20029;-77
2022/08/28 07:51:24;;;;;;;16.48;13.85;;;19.10;99.90;;;;;;5051706;28;20021;-78
2022/08/28 07:53:53;;;;;;;17.00;15.00;;;19.10;99.90;;;;;;5051541;28;20037;-77
2022/08/28 07:56:19;;;;;;;12.82;11.57;;;19.00;99.90;;;;;;5050318;28;20434;-80
2022/08/28 07:58:46;;;;;;;18.67;12.93;;;19.00;99.90;;;;;;5051339;28;20052;-78
2022/08/28 08:01:11;;;;;;;13.57;12.15;;;19.00;99.90;;;;;;5051627;28;20021;-76
2022/08/28 08:03:37;;;;;;;14.80;13.25;;;19.00;99.90;;;;;;5052052;28;20032;-77
2022/08/28 08:06:07;;;;;;;13.88;12.55;;;19.00;99.90;;;;;;5046840;28;20033;-76
2022/08/28 08:08:33;;;;;;;14.93;13.32;;;18.90;99.90;;;;;;5051318;28;20021;-77
2022/08/28 08:11:03;;;;;;;14.43;11.63;;;18.80;99.90;;;;;;5051346;28;20123;-77
2022/08/28 08:13:29;;;;;;;13.52;12.13;;;18.70;99.90;;;;;;5032015;28;20029;-77
2022/08/28 08:16:07;;;;;;;18.65;14.82;;;18.60;99.90;;;;;;5051640;28;20025;-77
2022/08/28 08:18:33;;;;;;;17.40;15.13;;;18.50;99.90;;;;;;5038799;28;20424;-77
2022/08/28 08:21:00;;;;;;;14.98;13.38;;;18.50;99.90;;;;;;5032582;28;20142;-76
2022/08/28 08:23:26;;;;;;;17.60;14.82;;;18.40;99.90;;;;;;5033389;28;20096;-77
2022/08/28 08:26:00;;;;;;;14.68;13.15;;;18.40;99.90;;;;;;5032524;28;20096;-80
2022/08/28 08:28:26;;;;;;;15.45;13.82;;;18.50;99.90;;;;;;5043802;28;20612;-77
2022/08/28 08:31:13;;;;;;;13.85;12.38;;;18.50;99.90;;;;;;5049020;28;20487;-78
2022/08/28 08:33:42;;;;;;;14.85;13.20;;;18.50;99.90;;;;;;5051499;28;20491;-78
2022/08/28 08:36:10;;;;;;;17.85;15.55;;;18.60;99.90;;;;;;5051348;28;20040;-78
2022/08/28 08:38:36;;;;;;;16.02;14.23;;;18.50;99.90;;;;;;5051136;28;20033;-78
2022/08/28 08:41:12;;;;;;;15.15;13.55;;;18.50;99.90;;;;;;5051211;28;20032;-78
2022/08/28 08:43:56;;;;;;;14.00;12.48;;;18.50;99.90;;;;;;5051703;28;20391;-79
2022/08/28 08:46:30;;;;;;;13.98;12.20;;;18.50;99.90;;;;;;5033446;28;20512;-78
2022/08/28 08:49:01;;;;;;;17.30;14.63;;;18.50;99.90;;;;;;5051277;28;20021;-78
2022/08/28 08:51:43;;;;;;;14.48;12.88;;;18.50;99.90;;;;;;5051075;28;20047;-78
2022/08/28 08:54:19;;;;;;;14.70;13.15;;;18.50;99.90;;;;;;5051521;28;20170;-78
2022/08/28 08:56:46;;;;;;;15.10;13.60;;;18.50;99.90;;;;;;5033301;28;20029;-78
2022/08/28 08:59:28;;;;;;;13.63;12.23;;;18.50;99.90;;;;;;5050889;28;20319;-78
2022/08/28 09:02:00;;;;;;;16.92;13.07;;;18.50;99.90;;;;;;5031330;28;20025;-77
2022/08/28 09:04:56;;;;;;;14.32;12.85;;;18.40;99.90;;;;;;5031960;28;20029;-79
2022/08/28 09:07:47;;;;;;;15.75;13.32;;;18.50;99.90;;;;;;5014948;28;20436;-77
2022/08/28 09:10:14;;;;;;;18.58;14.52;;;18.50;99.90;;;;;;5042742;28;20032;-79
2022/08/28 09:12:56;;;;;;;15.07;13.32;;;18.40;99.90;;;;;;5055653;28;20486;-79
2022/08/28 09:15:30;;;;;;;16.27;13.95;;;18.20;99.90;;;;;;5055429;28;20025;-78
2022/08/28 09:18:17;;;;;;;18.52;16.25;;;18.10;99.90;;;;;;5036666;28;20061;-78
2022/08/28 09:20:47;;;;;;;18.40;14.75;;;18.00;99.90;;;;;;5054521;28;20487;-78
2022/08/28 09:23:13;;;;;;;21.27;16.92;;;17.90;99.90;;;;;;5054553;28;20475;-78
2022/08/28 09:26:04;;;;;;;17.95;14.73;;;17.80;99.90;;;;;;5054429;28;20032;-79
2022/08/28 09:28:33;;;;;;;17.52;13.90;;;17.90;99.90;;;;;;5054367;28;20025;-77
2022/08/28 09:31:15;;;;;;;16.30;14.30;;;17.90;99.90;;;;;;5054392;28;20025;-78
2022/08/28 09:33:44;;;;;;;14.93;13.25;;;17.90;99.90;;;;;;5054623;28;20029;-78
2022/08/28 09:36:20;;;;;;;14.10;12.70;;;18.00;99.90;;;;;;5054092;28;20031;-78
2022/08/28 09:39:04;;;;;;;14.30;12.75;;;18.00;99.90;;;;;;5054296;28;20507;-78
2022/08/28 09:44:14;;;;;;;14.32;12.50;;;18.20;99.90;;;;;;5054092;28;20134;-79
2022/08/28 09:46:47;;;;;;;16.77;13.88;;;18.20;99.90;;;;;;5036309;28;20021;-78
2022/08/28 09:49:20;;;;;;;21.25;17.83;;;18.30;99.90;;;;;;5054754;28;20515;-78
2022/08/28 09:51:46;;;;;;;22.25;17.38;;;18.20;99.90;;;;;;5054122;28;20083;-79
2022/08/28 09:54:21;;;;;;;26.10;21.15;;;18.20;99.90;;;;;;5054378;28;20495;-79
2022/08/28 09:56:49;;;;;;;21.48;18.48;;;18.10;99.90;;;;;;5054146;28;20100;-79
2022/08/28 09:59:17;;;;;;;22.77;19.55;;;18.20;99.90;;;;;;5053796;28;20025;-79
2022/08/28 10:02:10;;;;;;;19.50;17.40;;;18.10;99.90;;;;;;5053946;28;20021;-77
2022/08/28 10:05:00;;;;;;;20.58;17.10;;;18.10;99.90;;;;;;5057394;28;20032;-77
2022/08/28 10:07:45;;;;;;;20.95;17.88;;;18.10;99.90;;;;;;5056242;28;20028;-78
2022/08/28 10:10:16;;;;;;;21.23;17.42;;;18.10;99.90;;;;;;5035978;28;20036;-79
2022/08/28 10:12:49;;;;;;;17.25;14.73;;;18.10;99.90;;;;;;5053782;28;20040;-78
2022/08/28 10:15:17;;;;;;;17.08;15.27;;;18.10;99.90;;;;;;5054095;28;20025;-78
2022/08/28 10:17:55;;;;;;;25.02;19.80;;;18.20;99.90;;;;;;5056339;28;20031;-78
2022/08/28 10:20:34;;;;;;;20.90;17.63;;;;;;;;;;5053914;28;20045;-78
2022/08/28 10:23:11;;;;;;;21.98;18.05;;;;;;;;;;5053750;28;20025;-77
2022/08/28 10:26:10;;;;;;;27.42;20.30;;;18.00;99.90;;;;;;5035773;28;20467;-77
2022/08/28 10:29:07;;;;;;;23.02;18.73;;;18.00;99.90;;;;;;5053053;28;20021;-78
2022/08/28 10:31:45;;;;;;;30.08;20.85;;;17.90;99.90;;;;;;5058295;28;20069;-80
2022/08/28 10:34:19;;;;;;;23.88;20.08;;;17.80;99.90;;;;;;5058671;28;20021;-77
2022/08/28 10:36:52;;;;;;;30.05;23.20;;;17.80;99.90;;;;;;5052981;28;20028;-78
2022/08/28 10:39:36;;;;;;;28.45;19.17;;;17.90;99.90;;;;;;5066739;22;20099;-84
2022/08/28 10:42:04;;;;;;;26.98;22.45;;;17.90;99.90;;;;;;5050922;28;20021;-84
2022/08/28 10:44:51;;;;;;;28.70;23.48;;;18.00;99.90;;;;;;5041410;28;20100;-83
2022/08/28 10:47:19;;;;;;;26.15;21.33;;;18.00;99.90;;;;;;5037117;28;20079;-84
2022/08/28 10:49:50;;;;;;;28.95;22.83;;;18.10;99.90;;;;;;5004893;28;20029;-84
2022/08/28 10:52:33;;;;;;;24.75;21.27;;;18.10;99.90;;;;;;5001859;28;20030;-84
2022/08/28 10:55:04;;;;;;;26.58;21.60;;;18.10;99.90;;;;;;5020856;28;20026;-84
2022/08/28 10:57:33;;;;;;;24.80;19.52;;;18.20;99.90;;;;;;5039339;28;20045;-84
2022/08/28 11:00:09;;;;;;;23.45;20.95;;;18.30;99.90;;;;;;5044987;28;20071;-84
2022/08/28 11:02:36;;;;;;;24.27;20.50;;;18.40;99.90;;;;;;5049986;28;20036;-84
2022/08/28 11:05:02;;;;;;;20.88;18.38;;;18.50;99.90;;;;;;5054575;28;20009;-85
2022/08/28 11:07:37;;;;;;;21.02;18.77;;;18.60;99.90;;;;;;5054829;28;20033;-85
2022/08/28 11:10:43;;;;;;;18.88;16.85;;;18.70;99.90;;;;;;5041173;28;20002;-85
2022/08/28 11:13:10;;;;;;;18.63;16.70;;;18.90;99.90;;;;;;5037035;28;20067;-83
2022/08/28 11:15:39;;;;;;;20.27;18.10;;;19.00;99.90;;;;;;5048994;28;20071;-83
2022/08/28 11:18:14;;;;;;;19.90;17.40;;;19.10;99.90;;;;;;5020037;28;20097;-86
2022/08/28 11:21:11;;;;;;;23.00;20.17;;;19.30;99.90;;;;;;5017104;28;20030;-84
2022/08/28 11:23:46;;;;;;;19.50;17.50;;;19.40;99.90;;;;;;5036280;28;20047;-85
2022/08/28 11:26:22;;;;;;;22.08;19.70;;;19.50;99.90;;;;;;5036074;28;20025;-84
2022/08/28 11:28:47;;;;;;;21.77;19.10;;;19.50;99.90;;;;;;5037306;28;20453;-84
2022/08/28 11:31:13;;;;;;;22.00;19.70;;;19.70;99.90;;;;;;5037757;28;20032;-85
2022/08/28 11:33:42;;;;;;;17.30;15.60;;;19.70;99.90;;;;;;5037518;28;20025;-84
2022/08/28 11:36:28;;;;;;;21.23;17.48;;;19.90;99.90;;;;;;5020296;28;20025;-83
2022/08/28 11:38:54;;;;;;;17.80;15.70;;;20.10;99.90;;;;;;4986474;28;20041;-84
2022/08/28 11:41:31;;;;;;;16.88;14.77;;;20.10;99.90;;;;;;5014641;28;20040;-84
2022/08/28 11:44:09;;;;;;;19.02;16.20;;;20.20;99.90;;;;;;5022199;28;20022;-84
2022/08/28 11:46:50;;;;;;;17.38;14.50;;;20.30;99.90;;;;;;5008530;28;20408;-84
2022/08/28 11:49:25;;;;;;;16.20;14.57;;;20.30;99.90;;;;;;5007172;28;20038;-84
2022/08/28 11:52:29;;;;;;;19.65;16.45;;;20.30;99.90;;;;;;5007001;28;20053;-84
2022/08/28 11:55:21;;;;;;;21.60;16.73;;;20.40;99.90;;;;;;5003773;28;20030;-86
2022/08/28 11:58:28;;;;;;;18.70;16.95;;;20.40;99.90;;;;;;5020617;28;20088;-86
2022/08/28 12:01:30;;;;;;;20.70;16.77;;;20.40;99.90;;;;;;5013918;28;20031;-85
2022/08/28 12:04:12;;;;;;;20.55;15.82;;;20.40;99.90;;;;;;4999615;28;20033;-85
2022/08/28 12:06:53;;;;;;;18.45;16.10;;;20.30;99.90;;;;;;5012419;28;20369;-83
2022/08/28 12:09:25;;;;;;;17.20;15.10;;;20.30;99.90;;;;;;5006858;28;20392;-84
2022/08/28 12:11:55;;;;;;;16.00;14.40;;;20.30;99.90;;;;;;5009794;28;20037;-84
2022/08/28 12:14:38;;;;;;;17.63;15.35;;;20.30;99.90;;;;;;5018540;28;20026;-84
2022/08/28 12:17:16;;;;;;;17.27;15.35;;;20.30;99.90;;;;;;5003869;28;20042;-84
2022/08/28 12:19:46;;;;;;;16.83;14.48;;;20.30;99.90;;;;;;5000271;28;20027;-85
2022/08/28 12:22:16;;;;;;;16.50;14.50;;;20.40;99.90;;;;;;4999635;28;20029;-84
2022/08/28 12:25:03;;;;;;;17.20;14.20;;;20.40;99.90;;;;;;5007016;28;20113;-84
2022/08/28 12:27:30;;;;;;;15.38;13.88;;;20.60;99.90;;;;;;5013467;28;20023;-84
2022/08/28 12:29:59;;;;;;;16.48;14.25;;;20.60;99.90;;;;;;4997752;28;20397;-84
2022/08/28 12:32:34;;;;;;;18.55;15.20;;;20.70;99.90;;;;;;5012593;28;20048;-84
2022/08/28 12:34:59;;;;;;;19.45;15.93;;;20.80;99.90;;;;;;5020343;28;20065;-83
2022/08/28 12:37:31;;;;;;;22.83;17.23;;;20.90;99.90;;;;;;5015956;28;20022;-84
2022/08/28 12:40:18;;;;;;;29.65;20.23;;;21.00;99.90;;;;;;5009933;28;20057;-83
2022/08/28 12:42:51;;;;;;;35.10;23.13;;;21.10;99.90;;;;;;5019485;28;20029;-83
2022/08/28 12:45:23;;;;;;;42.78;29.27;;;21.40;99.90;;;;;;5040431;28;20112;-82
2022/08/28 12:47:50;;;;;;;;;;;21.60;99.90;;;;;;5025013;28;20480;-84
2022/08/28 12:50:31;;;;;;;18.40;15.80;;;21.80;99.90;;;;;;5055333;28;19913;-85
2022/08/28 12:53:01;;;;;;;313.52;198.82;;;22.00;99.90;;;;;;5037302;28;20040;-85
2022/08/28 12:55:27;;;;;;;221.25;138.65;;;22.30;99.90;;;;;;5041594;28;20021;-84
2022/08/28 12:57:53;;;;;;;97.90;63.05;;;22.70;99.90;;;;;;5039727;28;20109;-85
2022/08/28 13:00:31;;;;;;;60.67;42.83;;;23.00;99.90;;;;;;5038726;28;20063;-85
2022/08/28 13:02:58;;;;;;;35.15;27.02;;;23.10;99.90;;;;;;5038354;28;20052;-84
2022/08/28 13:05:34;;;;;;;29.27;21.15;;;23.20;99.90;;;;;;5039880;28;20026;-84
2022/08/28 13:08:05;;;;;;;22.17;18.10;;;23.30;99.90;;;;;;5020711;28;20021;-85